METAR ET TAF INFORMATION
METAR FOR LFRB
ADDS - METARS form results

(0537 UTC 06 February 2023)
Data provider http://aviationweather.gov/metar/data/
 
METAR text: LFRB 060530Z AUTO 09009KT CAVOK 03/01 Q1041 TEMPO 4000 BR
Conditions at: LFRB (BREST/GUIPAVAS , FR) observed 0530 UTC 06 February 2023
Temperature: 3.0°C (37°F)
Dewpoint: 1.0°C (34°F) [RH = 87%]
Pressure (altimeter): 30.74 inches Hg (1041.0 mb)
Winds: from the E (90 degrees) at 10 MPH (9 knots; 4.6 m/s)
Visibility: 6 or more miles (10+ km)
Ceiling: ceiling and visibility are OK
Clouds: unknown
Weather: no significant weather observed at this time

METAR text: LFRB 060500Z AUTO 09010KT CAVOK 03/01 Q1041 TEMPO 4000 BR
Conditions at: LFRB (BREST/GUIPAVAS , FR) observed 0500 UTC 06 February 2023
Temperature: 3.0°C (37°F)
Dewpoint: 1.0°C (34°F) [RH = 87%]
Pressure (altimeter): 30.74 inches Hg (1041.0 mb)
Winds: from the E (90 degrees) at 12 MPH (10 knots; 5.1 m/s)
Visibility: 6 or more miles (10+ km)
Ceiling: ceiling and visibility are OK
Clouds: unknown
Weather: no significant weather observed at this time

Forecast for: LFRB (BREST/GUIPAVAS , FR)
Text: TAF LFRB 060500Z 0606/0712 09010KT CAVOK
Forecast period: 0600 UTC 06 February 2023 to 1200 UTC 07 February 2023
Forecast type: FROM: standard forecast or significant change
Winds: from the E (90 degrees) at 12 MPH (10 knots; 5.1 m/s)
Visibility: 6 or more miles (10+ km)
Ceiling: unknown
Clouds: missing
Weather: NSW  (no significant weather)

 AÉROPORT DE AÉROPORT

 INFORMATIONS DE PISTE
Piste 07L Longueur de la piste 2297 ft Largeur de la piste 59 ft
Élévation de la piste 311 ft Seuil de la piste déplacés 0 ft Runway heading 71
Piste 25R Longueur de la piste 2297 ft Largeur de la piste 59 ft
Élévation de la piste 317 ft Seuil de la piste déplacés 0 ft Runway heading 251
Piste 07R Longueur de la piste 10171 ft Largeur de la piste 148 ft
Élévation de la piste 289 ft Seuil de la piste déplacés 0 ft Runway heading 71
Piste 25L Longueur de la piste 10171 ft Largeur de la piste 148 ft
Élévation de la piste 312 ft Seuil de la piste déplacés 984 ft Runway heading 251

 AÉROPORT FRÉQUENCES
Type APP Nom LANDI APP Féquence 122.4 MHZ
Type APP Nom IROISE APP Féquence 135.825 MHZ
Type ATIS Nom ATIS Féquence 129.35 MHZ
Type TWR Nom TWR Féquence 120.1 MHZ

 SIDA DE NAVIGATION
Type NDB Nom Guipavas Féquence 387 KHZ
Type NDB Nom Guipavas Féquence 338 KHZ



Powered by Virtual Airlines Manager [v2.6.2]